sensor_id;sensor_type;location;lat;lon;timestamp;P1;durP1;ratioP1;P2;durP2;ratioP2
23230;SDS011;11784;49.818;8.632;2023-04-06T00:00:58;4.53;;;1.90;;
23230;SDS011;11784;49.818;8.632;2023-04-06T00:03:24;3.05;;;1.50;;
23230;SDS011;11784;49.818;8.632;2023-04-06T00:05:50;3.40;;;1.60;;
23230;SDS011;11784;49.818;8.632;2023-04-06T00:08:16;2.35;;;1.58;;
23230;SDS011;11784;49.818;8.632;2023-04-06T00:10:41;2.53;;;1.65;;
23230;SDS011;11784;49.818;8.632;2023-04-06T00:13:07;1.40;;;1.08;;
23230;SDS011;11784;49.818;8.632;2023-04-06T00:15:33;6.78;;;1.20;;
23230;SDS011;11784;49.818;8.632;2023-04-06T00:17:59;5.30;;;1.73;;
23230;SDS011;11784;49.818;8.632;2023-04-06T00:20:24;2.80;;;1.52;;
23230;SDS011;11784;49.818;8.632;2023-04-06T00:22:50;2.50;;;1.58;;
23230;SDS011;11784;49.818;8.632;2023-04-06T00:25:15;3.13;;;1.27;;
23230;SDS011;11784;49.818;8.632;2023-04-06T00:27:41;2.28;;;1.35;;
23230;SDS011;11784;49.818;8.632;2023-04-06T00:30:07;3.30;;;1.88;;
23230;SDS011;11784;49.818;8.632;2023-04-06T00:32:33;2.13;;;1.20;;
23230;SDS011;11784;49.818;8.632;2023-04-06T00:35:01;3.05;;;1.13;;
23230;SDS011;11784;49.818;8.632;2023-04-06T00:37:27;2.33;;;1.20;;
23230;SDS011;11784;49.818;8.632;2023-04-06T00:39:53;2.60;;;1.45;;
23230;SDS011;11784;49.818;8.632;2023-04-06T00:42:18;2.30;;;1.15;;
23230;SDS011;11784;49.818;8.632;2023-04-06T00:44:50;2.08;;;1.63;;
23230;SDS011;11784;49.818;8.632;2023-04-06T00:47:20;1.92;;;1.30;;
23230;SDS011;11784;49.818;8.632;2023-04-06T00:49:47;2.38;;;1.20;;
23230;SDS011;11784;49.818;8.632;2023-04-06T00:52:12;2.20;;;1.23;;
23230;SDS011;11784;49.818;8.632;2023-04-06T00:54:38;4.63;;;1.70;;
23230;SDS011;11784;49.818;8.632;2023-04-06T00:57:03;3.83;;;1.77;;
23230;SDS011;11784;49.818;8.632;2023-04-06T00:59:29;1.27;;;0.93;;
23230;SDS011;11784;49.818;8.632;2023-04-06T01:01:56;2.80;;;1.88;;
23230;SDS011;11784;49.818;8.632;2023-04-06T01:04:21;1.65;;;1.30;;
23230;SDS011;11784;49.818;8.632;2023-04-06T01:06:50;2.40;;;1.10;;
23230;SDS011;11784;49.818;8.632;2023-04-06T01:09:18;2.13;;;1.38;;
23230;SDS011;11784;49.818;8.632;2023-04-06T01:11:44;1.67;;;0.95;;
23230;SDS011;11784;49.818;8.632;2023-04-06T01:14:09;3.40;;;1.55;;
23230;SDS011;11784;49.818;8.632;2023-04-06T01:16:35;3.05;;;0.90;;
23230;SDS011;11784;49.818;8.632;2023-04-06T01:19:06;1.20;;;0.90;;
23230;SDS011;11784;49.818;8.632;2023-04-06T01:21:34;2.50;;;1.25;;
23230;SDS011;11784;49.818;8.632;2023-04-06T01:23:59;14.43;;;1.30;;
23230;SDS011;11784;49.818;8.632;2023-04-06T01:26:25;0.95;;;0.75;;
23230;SDS011;11784;49.818;8.632;2023-04-06T01:28:51;0.75;;;0.75;;
23230;SDS011;11784;49.818;8.632;2023-04-06T01:31:17;4.05;;;1.55;;
23230;SDS011;11784;49.818;8.632;2023-04-06T01:33:42;1.40;;;0.70;;
23230;SDS011;11784;49.818;8.632;2023-04-06T01:36:08;3.92;;;1.20;;
23230;SDS011;11784;49.818;8.632;2023-04-06T01:38:33;1.88;;;1.02;;
23230;SDS011;11784;49.818;8.632;2023-04-06T01:40:59;2.05;;;1.30;;
23230;SDS011;11784;49.818;8.632;2023-04-06T01:43:25;2.28;;;1.10;;
23230;SDS011;11784;49.818;8.632;2023-04-06T01:45:50;2.35;;;1.60;;
23230;SDS011;11784;49.818;8.632;2023-04-06T01:48:16;2.28;;;1.27;;
23230;SDS011;11784;49.818;8.632;2023-04-06T01:50:42;4.55;;;1.33;;
23230;SDS011;11784;49.818;8.632;2023-04-06T01:53:07;2.33;;;1.35;;
23230;SDS011;11784;49.818;8.632;2023-04-06T01:55:33;2.05;;;1.35;;
23230;SDS011;11784;49.818;8.632;2023-04-06T01:57:58;2.08;;;1.30;;
23230;SDS011;11784;49.818;8.632;2023-04-06T02:00:24;4.47;;;1.60;;
23230;SDS011;11784;49.818;8.632;2023-04-06T02:02:49;3.20;;;1.25;;
23230;SDS011;11784;49.818;8.632;2023-04-06T02:05:15;2.45;;;1.30;;
23230;SDS011;11784;49.818;8.632;2023-04-06T02:07:41;3.38;;;1.38;;
23230;SDS011;11784;49.818;8.632;2023-04-06T02:10:10;1.58;;;1.02;;
23230;SDS011;11784;49.818;8.632;2023-04-06T02:12:39;2.72;;;1.73;;
23230;SDS011;11784;49.818;8.632;2023-04-06T02:15:05;2.25;;;1.15;;
23230;SDS011;11784;49.818;8.632;2023-04-06T02:17:32;2.05;;;0.88;;
23230;SDS011;11784;49.818;8.632;2023-04-06T02:19:57;2.10;;;1.08;;
23230;SDS011;11784;49.818;8.632;2023-04-06T02:22:23;2.75;;;0.88;;
23230;SDS011;11784;49.818;8.632;2023-04-06T02:24:48;2.85;;;1.25;;
23230;SDS011;11784;49.818;8.632;2023-04-06T02:27:14;1.70;;;1.38;;
23230;SDS011;11784;49.818;8.632;2023-04-06T02:29:40;1.67;;;1.27;;
23230;SDS011;11784;49.818;8.632;2023-04-06T02:32:05;2.80;;;1.08;;
23230;SDS011;11784;49.818;8.632;2023-04-06T02:34:31;2.15;;;1.30;;
23230;SDS011;11784;49.818;8.632;2023-04-06T02:36:57;1.67;;;1.20;;
23230;SDS011;11784;49.818;8.632;2023-04-06T02:39:22;1.42;;;1.27;;
23230;SDS011;11784;49.818;8.632;2023-04-06T02:41:48;1.33;;;1.10;;
23230;SDS011;11784;49.818;8.632;2023-04-06T02:44:13;2.60;;;1.73;;
23230;SDS011;11784;49.818;8.632;2023-04-06T02:46:39;3.97;;;0.90;;
23230;SDS011;11784;49.818;8.632;2023-04-06T02:49:05;1.08;;;0.98;;
23230;SDS011;11784;49.818;8.632;2023-04-06T02:51:30;1.10;;;0.73;;
23230;SDS011;11784;49.818;8.632;2023-04-06T02:53:56;1.52;;;0.93;;
23230;SDS011;11784;49.818;8.632;2023-04-06T02:56:21;2.03;;;1.40;;
23230;SDS011;11784;49.818;8.632;2023-04-06T02:58:47;1.48;;;1.10;;
23230;SDS011;11784;49.818;8.632;2023-04-06T03:01:13;1.00;;;0.90;;
23230;SDS011;11784;49.818;8.632;2023-04-06T03:03:38;1.23;;;0.90;;
23230;SDS011;11784;49.818;8.632;2023-04-06T03:06:04;4.70;;;1.33;;
23230;SDS011;11784;49.818;8.632;2023-04-06T03:08:29;1.77;;;1.10;;
23230;SDS011;11784;49.818;8.632;2023-04-06T03:10:55;4.85;;;1.48;;
23230;SDS011;11784;49.818;8.632;2023-04-06T03:13:20;1.55;;;0.75;;
23230;SDS011;11784;49.818;8.632;2023-04-06T03:15:46;1.10;;;0.82;;
23230;SDS011;11784;49.818;8.632;2023-04-06T03:18:12;3.03;;;1.67;;
23230;SDS011;11784;49.818;8.632;2023-04-06T03:20:37;3.05;;;1.00;;
23230;SDS011;11784;49.818;8.632;2023-04-06T03:23:03;1.00;;;0.90;;
23230;SDS011;11784;49.818;8.632;2023-04-06T03:25:29;2.95;;;1.35;;
23230;SDS011;11784;49.818;8.632;2023-04-06T03:27:57;3.10;;;1.25;;
23230;SDS011;11784;49.818;8.632;2023-04-06T03:30:23;0.85;;;0.75;;
23230;SDS011;11784;49.818;8.632;2023-04-06T03:32:48;1.05;;;0.88;;
23230;SDS011;11784;49.818;8.632;2023-04-06T03:35:14;1.70;;;1.20;;
23230;SDS011;11784;49.818;8.632;2023-04-06T03:37:40;0.93;;;0.88;;
23230;SDS011;11784;49.818;8.632;2023-04-06T03:40:05;2.58;;;1.65;;
23230;SDS011;11784;49.818;8.632;2023-04-06T03:42:31;1.77;;;0.85;;
23230;SDS011;11784;49.818;8.632;2023-04-06T03:44:57;1.52;;;1.20;;
23230;SDS011;11784;49.818;8.632;2023-04-06T03:47:23;1.40;;;1.02;;
23230;SDS011;11784;49.818;8.632;2023-04-06T03:49:49;1.65;;;1.08;;
23230;SDS011;11784;49.818;8.632;2023-04-06T03:52:15;1.85;;;0.90;;
23230;SDS011;11784;49.818;8.632;2023-04-06T03:54:40;3.22;;;1.17;;
23230;SDS011;11784;49.818;8.632;2023-04-06T03:57:06;2.03;;;1.15;;
23230;SDS011;11784;49.818;8.632;2023-04-06T03:59:32;1.67;;;1.00;;
23230;SDS011;11784;49.818;8.632;2023-04-06T04:01:57;4.13;;;1.42;;
23230;SDS011;11784;49.818;8.632;2023-04-06T04:04:22;1.92;;;1.20;;
23230;SDS011;11784;49.818;8.632;2023-04-06T04:06:48;1.45;;;0.80;;
23230;SDS011;11784;49.818;8.632;2023-04-06T04:09:15;2.00;;;1.10;;
23230;SDS011;11784;49.818;8.632;2023-04-06T04:11:40;1.95;;;1.38;;
23230;SDS011;11784;49.818;8.632;2023-04-06T04:14:06;1.25;;;0.80;;
23230;SDS011;11784;49.818;8.632;2023-04-06T04:16:31;3.13;;;1.20;;
23230;SDS011;11784;49.818;8.632;2023-04-06T04:18:57;2.60;;;0.82;;
23230;SDS011;11784;49.818;8.632;2023-04-06T04:21:25;1.45;;;1.10;;
23230;SDS011;11784;49.818;8.632;2023-04-06T04:23:55;3.22;;;1.05;;
23230;SDS011;11784;49.818;8.632;2023-04-06T04:26:20;1.80;;;0.88;;
23230;SDS011;11784;49.818;8.632;2023-04-06T04:28:46;1.17;;;1.05;;
23230;SDS011;11784;49.818;8.632;2023-04-06T04:31:11;3.55;;;1.45;;
23230;SDS011;11784;49.818;8.632;2023-04-06T04:33:37;3.80;;;1.05;;
23230;SDS011;11784;49.818;8.632;2023-04-06T04:36:02;3.13;;;1.20;;
23230;SDS011;11784;49.818;8.632;2023-04-06T04:38:28;1.63;;;1.13;;
23230;SDS011;11784;49.818;8.632;2023-04-06T04:40:54;1.65;;;0.90;;
23230;SDS011;11784;49.818;8.632;2023-04-06T04:43:19;2.75;;;1.05;;
23230;SDS011;11784;49.818;8.632;2023-04-06T04:45:45;1.02;;;0.80;;
23230;SDS011;11784;49.818;8.632;2023-04-06T04:48:10;2.40;;;1.15;;
23230;SDS011;11784;49.818;8.632;2023-04-06T04:50:36;2.97;;;1.85;;
23230;SDS011;11784;49.818;8.632;2023-04-06T04:53:01;4.30;;;1.50;;
23230;SDS011;11784;49.818;8.632;2023-04-06T04:55:30;2.80;;;1.30;;
23230;SDS011;11784;49.818;8.632;2023-04-06T04:57:55;3.80;;;1.98;;
23230;SDS011;11784;49.818;8.632;2023-04-06T05:00:21;3.20;;;1.58;;
23230;SDS011;11784;49.818;8.632;2023-04-06T05:02:46;1.38;;;0.85;;
23230;SDS011;11784;49.818;8.632;2023-04-06T05:05:12;1.77;;;1.48;;
23230;SDS011;11784;49.818;8.632;2023-04-06T05:07:37;4.38;;;2.00;;
23230;SDS011;11784;49.818;8.632;2023-04-06T05:10:03;3.22;;;1.50;;
23230;SDS011;11784;49.818;8.632;2023-04-06T05:12:29;5.20;;;2.20;;
23230;SDS011;11784;49.818;8.632;2023-04-06T05:14:54;4.38;;;1.95;;
23230;SDS011;11784;49.818;8.632;2023-04-06T05:17:20;5.03;;;1.73;;
23230;SDS011;11784;49.818;8.632;2023-04-06T05:19:46;4.75;;;1.42;;
23230;SDS011;11784;49.818;8.632;2023-04-06T05:22:11;2.30;;;1.80;;
23230;SDS011;11784;49.818;8.632;2023-04-06T05:24:39;4.30;;;1.80;;
23230;SDS011;11784;49.818;8.632;2023-04-06T05:27:05;2.97;;;1.73;;
23230;SDS011;11784;49.818;8.632;2023-04-06T05:29:31;1.60;;;1.05;;
23230;SDS011;11784;49.818;8.632;2023-04-06T05:31:56;3.03;;;1.17;;
23230;SDS011;11784;49.818;8.632;2023-04-06T05:34:22;1.75;;;0.93;;
23230;SDS011;11784;49.818;8.632;2023-04-06T05:36:47;3.35;;;1.85;;
23230;SDS011;11784;49.818;8.632;2023-04-06T05:39:13;2.55;;;1.42;;
23230;SDS011;11784;49.818;8.632;2023-04-06T05:41:38;1.63;;;1.30;;
23230;SDS011;11784;49.818;8.632;2023-04-06T05:44:04;3.38;;;1.35;;
23230;SDS011;11784;49.818;8.632;2023-04-06T05:46:29;1.70;;;1.10;;
23230;SDS011;11784;49.818;8.632;2023-04-06T05:48:55;2.60;;;1.25;;
23230;SDS011;11784;49.818;8.632;2023-04-06T05:51:21;2.00;;;1.67;;
23230;SDS011;11784;49.818;8.632;2023-04-06T05:53:46;2.72;;;1.40;;
23230;SDS011;11784;49.818;8.632;2023-04-06T05:56:12;6.53;;;1.67;;
23230;SDS011;11784;49.818;8.632;2023-04-06T05:58:37;2.88;;;2.03;;
23230;SDS011;11784;49.818;8.632;2023-04-06T06:01:03;3.28;;;2.47;;
23230;SDS011;11784;49.818;8.632;2023-04-06T06:03:30;4.18;;;1.77;;
23230;SDS011;11784;49.818;8.632;2023-04-06T06:06:00;3.97;;;1.80;;
23230;SDS011;11784;49.818;8.632;2023-04-06T06:08:26;4.77;;;1.90;;
23230;SDS011;11784;49.818;8.632;2023-04-06T06:10:52;2.72;;;1.38;;
23230;SDS011;11784;49.818;8.632;2023-04-06T06:13:18;3.28;;;1.88;;
23230;SDS011;11784;49.818;8.632;2023-04-06T06:15:43;19.25;;;2.38;;
23230;SDS011;11784;49.818;8.632;2023-04-06T06:18:09;2.83;;;1.88;;
23230;SDS011;11784;49.818;8.632;2023-04-06T06:20:35;4.15;;;1.95;;
23230;SDS011;11784;49.818;8.632;2023-04-06T06:23:00;2.55;;;1.67;;
23230;SDS011;11784;49.818;8.632;2023-04-06T06:25:26;5.82;;;2.13;;
23230;SDS011;11784;49.818;8.632;2023-04-06T06:27:51;4.00;;;1.98;;
23230;SDS011;11784;49.818;8.632;2023-04-06T06:30:17;3.83;;;2.10;;
23230;SDS011;11784;49.818;8.632;2023-04-06T06:32:43;4.40;;;2.03;;
23230;SDS011;11784;49.818;8.632;2023-04-06T06:35:08;3.42;;;2.13;;
23230;SDS011;11784;49.818;8.632;2023-04-06T06:37:34;4.90;;;1.90;;
23230;SDS011;11784;49.818;8.632;2023-04-06T06:39:59;4.55;;;2.45;;
23230;SDS011;11784;49.818;8.632;2023-04-06T06:42:25;9.40;;;2.40;;
23230;SDS011;11784;49.818;8.632;2023-04-06T06:44:51;7.60;;;3.05;;
23230;SDS011;11784;49.818;8.632;2023-04-06T06:47:16;8.80;;;2.90;;
23230;SDS011;11784;49.818;8.632;2023-04-06T06:49:42;6.47;;;1.70;;
23230;SDS011;11784;49.818;8.632;2023-04-06T06:52:08;4.22;;;1.95;;
23230;SDS011;11784;49.818;8.632;2023-04-06T06:54:33;6.38;;;2.50;;
23230;SDS011;11784;49.818;8.632;2023-04-06T06:56:59;5.53;;;2.78;;
23230;SDS011;11784;49.818;8.632;2023-04-06T06:59:25;7.38;;;2.85;;
23230;SDS011;11784;49.818;8.632;2023-04-06T07:01:50;5.50;;;2.85;;
23230;SDS011;11784;49.818;8.632;2023-04-06T07:04:16;10.20;;;2.70;;
23230;SDS011;11784;49.818;8.632;2023-04-06T07:06:42;3.25;;;2.20;;
23230;SDS011;11784;49.818;8.632;2023-04-06T07:09:07;4.40;;;2.63;;
23230;SDS011;11784;49.818;8.632;2023-04-06T07:11:33;4.00;;;2.22;;
23230;SDS011;11784;49.818;8.632;2023-04-06T07:13:59;7.25;;;2.47;;
23230;SDS011;11784;49.818;8.632;2023-04-06T07:16:24;4.57;;;2.65;;
23230;SDS011;11784;49.818;8.632;2023-04-06T07:18:50;4.00;;;2.47;;
23230;SDS011;11784;49.818;8.632;2023-04-06T07:21:15;6.40;;;3.15;;
23230;SDS011;11784;49.818;8.632;2023-04-06T07:23:41;10.75;;;3.30;;
23230;SDS011;11784;49.818;8.632;2023-04-06T07:26:07;6.40;;;2.60;;
23230;SDS011;11784;49.818;8.632;2023-04-06T07:28:32;3.70;;;2.22;;
23230;SDS011;11784;49.818;8.632;2023-04-06T07:30:58;4.95;;;2.90;;
23230;SDS011;11784;49.818;8.632;2023-04-06T07:33:24;4.40;;;3.03;;
23230;SDS011;11784;49.818;8.632;2023-04-06T07:35:49;5.70;;;2.45;;
23230;SDS011;11784;49.818;8.632;2023-04-06T07:38:16;9.63;;;3.10;;
23230;SDS011;11784;49.818;8.632;2023-04-06T07:40:42;5.00;;;3.00;;
23230;SDS011;11784;49.818;8.632;2023-04-06T07:43:07;9.30;;;3.08;;
23230;SDS011;11784;49.818;8.632;2023-04-06T07:45:33;5.63;;;2.90;;
23230;SDS011;11784;49.818;8.632;2023-04-06T07:47:58;4.75;;;2.60;;
23230;SDS011;11784;49.818;8.632;2023-04-06T07:50:24;4.20;;;2.40;;
23230;SDS011;11784;49.818;8.632;2023-04-06T07:52:50;4.65;;;2.47;;
23230;SDS011;11784;49.818;8.632;2023-04-06T07:55:15;5.15;;;2.97;;
23230;SDS011;11784;49.818;8.632;2023-04-06T07:57:41;6.03;;;3.40;;
23230;SDS011;11784;49.818;8.632;2023-04-06T08:00:06;5.95;;;2.75;;
23230;SDS011;11784;49.818;8.632;2023-04-06T08:02:34;11.05;;;2.95;;
23230;SDS011;11784;49.818;8.632;2023-04-06T08:05:00;4.90;;;2.47;;
23230;SDS011;11784;49.818;8.632;2023-04-06T08:07:25;4.45;;;2.80;;
23230;SDS011;11784;49.818;8.632;2023-04-06T08:09:51;5.68;;;2.83;;
23230;SDS011;11784;49.818;8.632;2023-04-06T08:12:17;6.15;;;3.13;;
23230;SDS011;11784;49.818;8.632;2023-04-06T08:14:42;4.40;;;2.58;;
23230;SDS011;11784;49.818;8.632;2023-04-06T08:17:08;4.88;;;2.85;;
23230;SDS011;11784;49.818;8.632;2023-04-06T08:19:33;5.38;;;2.90;;
23230;SDS011;11784;49.818;8.632;2023-04-06T08:21:59;6.60;;;3.00;;
23230;SDS011;11784;49.818;8.632;2023-04-06T08:24:24;5.00;;;2.78;;
23230;SDS011;11784;49.818;8.632;2023-04-06T08:26:50;6.68;;;2.42;;
23230;SDS011;11784;49.818;8.632;2023-04-06T08:29:16;6.63;;;2.90;;
23230;SDS011;11784;49.818;8.632;2023-04-06T08:31:42;5.68;;;2.92;;
23230;SDS011;11784;49.818;8.632;2023-04-06T08:34:07;9.85;;;3.05;;
23230;SDS011;11784;49.818;8.632;2023-04-06T08:36:33;4.88;;;2.63;;
23230;SDS011;11784;49.818;8.632;2023-04-06T08:38:59;7.43;;;2.97;;
23230;SDS011;11784;49.818;8.632;2023-04-06T08:41:25;5.10;;;2.83;;
23230;SDS011;11784;49.818;8.632;2023-04-06T08:46:21;4.60;;;2.67;;
23230;SDS011;11784;49.818;8.632;2023-04-06T08:48:48;9.20;;;3.28;;
23230;SDS011;11784;49.818;8.632;2023-04-06T08:51:15;5.13;;;2.63;;
23230;SDS011;11784;49.818;8.632;2023-04-06T08:53:41;5.47;;;2.75;;
23230;SDS011;11784;49.818;8.632;2023-04-06T08:56:06;5.57;;;2.97;;
23230;SDS011;11784;49.818;8.632;2023-04-06T08:58:35;9.48;;;2.97;;
23230;SDS011;11784;49.818;8.632;2023-04-06T09:01:06;7.13;;;3.45;;
23230;SDS011;11784;49.818;8.632;2023-04-06T09:03:35;10.52;;;3.90;;
23230;SDS011;11784;49.818;8.632;2023-04-06T09:06:04;6.20;;;3.20;;
23230;SDS011;11784;49.818;8.632;2023-04-06T09:08:30;7.18;;;2.63;;
23230;SDS011;11784;49.818;8.632;2023-04-06T09:11:01;4.95;;;2.55;;
23230;SDS011;11784;49.818;8.632;2023-04-06T09:13:30;5.00;;;3.00;;
23230;SDS011;11784;49.818;8.632;2023-04-06T09:16:02;7.38;;;4.07;;
23230;SDS011;11784;49.818;8.632;2023-04-06T09:18:29;6.13;;;3.20;;
23230;SDS011;11784;49.818;8.632;2023-04-06T09:20:59;7.95;;;3.03;;
23230;SDS011;11784;49.818;8.632;2023-04-06T09:23:26;5.75;;;2.92;;
23230;SDS011;11784;49.818;8.632;2023-04-06T09:25:51;4.82;;;2.72;;
23230;SDS011;11784;49.818;8.632;2023-04-06T09:28:17;11.35;;;4.03;;
23230;SDS011;11784;49.818;8.632;2023-04-06T09:30:48;6.80;;;3.13;;
23230;SDS011;11784;49.818;8.632;2023-04-06T09:33:21;5.70;;;3.22;;
23230;SDS011;11784;49.818;8.632;2023-04-06T09:35:51;5.60;;;3.00;;
23230;SDS011;11784;49.818;8.632;2023-04-06T09:38:16;12.90;;;4.10;;
23230;SDS011;11784;49.818;8.632;2023-04-06T09:40:51;5.80;;;3.15;;
23230;SDS011;11784;49.818;8.632;2023-04-06T09:43:23;5.97;;;3.17;;
23230;SDS011;11784;49.818;8.632;2023-04-06T09:45:50;11.35;;;3.35;;
23230;SDS011;11784;49.818;8.632;2023-04-06T09:48:16;7.32;;;3.60;;
23230;SDS011;11784;49.818;8.632;2023-04-06T09:50:44;5.60;;;3.40;;
23230;SDS011;11784;49.818;8.632;2023-04-06T09:53:10;4.88;;;2.55;;
23230;SDS011;11784;49.818;8.632;2023-04-06T09:55:42;9.43;;;3.33;;
23230;SDS011;11784;49.818;8.632;2023-04-06T09:58:09;7.63;;;3.33;;
23230;SDS011;11784;49.818;8.632;2023-04-06T10:00:43;6.82;;;3.28;;
23230;SDS011;11784;49.818;8.632;2023-04-06T10:03:29;7.63;;;3.83;;
23230;SDS011;11784;49.818;8.632;2023-04-06T10:06:06;6.72;;;2.38;;
23230;SDS011;11784;49.818;8.632;2023-04-06T10:08:36;6.57;;;3.92;;
23230;SDS011;11784;49.818;8.632;2023-04-06T10:11:07;5.63;;;3.15;;
23230;SDS011;11784;49.818;8.632;2023-04-06T10:13:34;6.15;;;3.42;;
23230;SDS011;11784;49.818;8.632;2023-04-06T10:16:00;12.02;;;3.00;;
23230;SDS011;11784;49.818;8.632;2023-04-06T10:18:28;7.40;;;3.03;;
23230;SDS011;11784;49.818;8.632;2023-04-06T10:20:55;4.45;;;2.33;;
23230;SDS011;11784;49.818;8.632;2023-04-06T10:23:29;4.38;;;3.17;;
23230;SDS011;11784;49.818;8.632;2023-04-06T10:26:16;7.53;;;3.47;;
23230;SDS011;11784;49.818;8.632;2023-04-06T10:28:45;6.80;;;2.63;;
23230;SDS011;11784;49.818;8.632;2023-04-06T10:31:11;6.07;;;2.35;;
23230;SDS011;11784;49.818;8.632;2023-04-06T10:33:37;5.88;;;2.75;;
23230;SDS011;11784;49.818;8.632;2023-04-06T10:36:13;7.55;;;2.70;;
23230;SDS011;11784;49.818;8.632;2023-04-06T10:38:40;6.75;;;2.92;;
23230;SDS011;11784;49.818;8.632;2023-04-06T10:41:07;4.88;;;2.75;;
23230;SDS011;11784;49.818;8.632;2023-04-06T10:43:34;5.53;;;2.55;;
23230;SDS011;11784;49.818;8.632;2023-04-06T10:46:01;6.40;;;2.55;;
23230;SDS011;11784;49.818;8.632;2023-04-06T10:48:40;5.35;;;2.75;;
23230;SDS011;11784;49.818;8.632;2023-04-06T10:51:09;7.25;;;3.05;;
23230;SDS011;11784;49.818;8.632;2023-04-06T10:53:35;6.07;;;2.85;;
23230;SDS011;11784;49.818;8.632;2023-04-06T10:56:01;9.80;;;2.90;;
23230;SDS011;11784;49.818;8.632;2023-04-06T10:58:28;5.65;;;2.38;;
23230;SDS011;11784;49.818;8.632;2023-04-06T11:00:54;5.13;;;3.08;;
23230;SDS011;11784;49.818;8.632;2023-04-06T11:03:20;5.60;;;2.67;;
23230;SDS011;11784;49.818;8.632;2023-04-06T11:05:50;4.97;;;2.70;;
23230;SDS011;11784;49.818;8.632;2023-04-06T11:10:51;9.65;;;2.47;;
23230;SDS011;11784;49.818;8.632;2023-04-06T11:13:17;5.28;;;2.47;;
23230;SDS011;11784;49.818;8.632;2023-04-06T11:15:42;6.97;;;3.20;;
23230;SDS011;11784;49.818;8.632;2023-04-06T11:18:08;6.50;;;2.72;;
23230;SDS011;11784;49.818;8.632;2023-04-06T11:20:33;5.13;;;2.67;;
23230;SDS011;11784;49.818;8.632;2023-04-06T11:22:59;6.10;;;3.35;;
23230;SDS011;11784;49.818;8.632;2023-04-06T11:25:26;6.40;;;3.03;;
23230;SDS011;11784;49.818;8.632;2023-04-06T11:27:52;7.70;;;3.00;;
23230;SDS011;11784;49.818;8.632;2023-04-06T11:30:18;5.30;;;2.90;;
23230;SDS011;11784;49.818;8.632;2023-04-06T11:32:44;5.95;;;2.47;;
23230;SDS011;11784;49.818;8.632;2023-04-06T11:35:20;10.77;;;3.72;;
23230;SDS011;11784;49.818;8.632;2023-04-06T11:37:48;4.60;;;2.30;;
23230;SDS011;11784;49.818;8.632;2023-04-06T11:40:15;5.13;;;2.80;;
23230;SDS011;11784;49.818;8.632;2023-04-06T11:42:45;8.30;;;3.45;;
23230;SDS011;11784;49.818;8.632;2023-04-06T11:45:17;8.88;;;2.67;;
23230;SDS011;11784;49.818;8.632;2023-04-06T11:47:43;8.50;;;3.28;;
23230;SDS011;11784;49.818;8.632;2023-04-06T11:50:09;4.75;;;2.47;;
23230;SDS011;11784;49.818;8.632;2023-04-06T11:52:36;6.25;;;2.30;;
23230;SDS011;11784;49.818;8.632;2023-04-06T11:55:16;5.55;;;2.28;;
23230;SDS011;11784;49.818;8.632;2023-04-06T11:57:43;5.63;;;3.00;;
23230;SDS011;11784;49.818;8.632;2023-04-06T12:00:09;8.32;;;3.08;;
23230;SDS011;11784;49.818;8.632;2023-04-06T12:02:36;5.15;;;2.15;;
23230;SDS011;11784;49.818;8.632;2023-04-06T12:05:03;5.72;;;2.45;;
23230;SDS011;11784;49.818;8.632;2023-04-06T12:07:29;4.85;;;2.35;;
23230;SDS011;11784;49.818;8.632;2023-04-06T12:09:55;6.25;;;2.63;;
23230;SDS011;11784;49.818;8.632;2023-04-06T12:12:21;4.75;;;2.38;;
23230;SDS011;11784;49.818;8.632;2023-04-06T12:14:46;5.78;;;2.33;;
23230;SDS011;11784;49.818;8.632;2023-04-06T12:17:12;5.05;;;2.47;;
23230;SDS011;11784;49.818;8.632;2023-04-06T12:19:37;7.35;;;2.85;;
23230;SDS011;11784;49.818;8.632;2023-04-06T12:22:03;6.20;;;2.25;;
23230;SDS011;11784;49.818;8.632;2023-04-06T12:24:28;4.65;;;2.10;;
23230;SDS011;11784;49.818;8.632;2023-04-06T12:26:54;3.38;;;1.88;;
23230;SDS011;11784;49.818;8.632;2023-04-06T12:29:20;6.45;;;2.28;;
23230;SDS011;11784;49.818;8.632;2023-04-06T12:31:45;4.78;;;2.42;;
23230;SDS011;11784;49.818;8.632;2023-04-06T12:34:11;3.85;;;1.80;;
23230;SDS011;11784;49.818;8.632;2023-04-06T12:36:37;4.95;;;2.00;;
23230;SDS011;11784;49.818;8.632;2023-04-06T12:39:03;8.70;;;2.53;;
23230;SDS011;11784;49.818;8.632;2023-04-06T12:41:29;4.93;;;2.17;;
23230;SDS011;11784;49.818;8.632;2023-04-06T12:43:55;5.75;;;2.35;;
23230;SDS011;11784;49.818;8.632;2023-04-06T12:46:20;5.13;;;2.25;;
23230;SDS011;11784;49.818;8.632;2023-04-06T12:48:46;4.60;;;2.13;;
23230;SDS011;11784;49.818;8.632;2023-04-06T12:51:12;3.40;;;1.63;;
23230;SDS011;11784;49.818;8.632;2023-04-06T12:53:39;4.30;;;2.17;;
23230;SDS011;11784;49.818;8.632;2023-04-06T12:56:14;5.85;;;2.22;;
23230;SDS011;11784;49.818;8.632;2023-04-06T12:58:42;4.18;;;2.03;;
23230;SDS011;11784;49.818;8.632;2023-04-06T13:01:08;4.93;;;2.28;;
23230;SDS011;11784;49.818;8.632;2023-04-06T13:03:34;4.57;;;1.70;;
23230;SDS011;11784;49.818;8.632;2023-04-06T13:06:00;3.50;;;2.10;;
23230;SDS011;11784;49.818;8.632;2023-04-06T13:08:27;4.80;;;2.13;;
23230;SDS011;11784;49.818;8.632;2023-04-06T13:10:53;4.97;;;2.40;;
23230;SDS011;11784;49.818;8.632;2023-04-06T13:13:22;6.32;;;2.50;;
23230;SDS011;11784;49.818;8.632;2023-04-06T13:15:49;5.97;;;2.60;;
23230;SDS011;11784;49.818;8.632;2023-04-06T13:18:15;5.65;;;2.47;;
23230;SDS011;11784;49.818;8.632;2023-04-06T13:20:41;3.28;;;1.60;;
23230;SDS011;11784;49.818;8.632;2023-04-06T13:23:07;5.35;;;2.22;;
23230;SDS011;11784;49.818;8.632;2023-04-06T13:25:33;4.43;;;2.28;;
23230;SDS011;11784;49.818;8.632;2023-04-06T13:27:59;4.90;;;2.58;;
23230;SDS011;11784;49.818;8.632;2023-04-06T13:30:26;5.95;;;2.28;;
23230;SDS011;11784;49.818;8.632;2023-04-06T13:32:51;6.28;;;2.83;;
23230;SDS011;11784;49.818;8.632;2023-04-06T13:35:17;5.32;;;2.60;;
23230;SDS011;11784;49.818;8.632;2023-04-06T13:37:43;3.10;;;2.22;;
23230;SDS011;11784;49.818;8.632;2023-04-06T13:40:09;3.53;;;2.35;;
23230;SDS011;11784;49.818;8.632;2023-04-06T13:42:35;4.63;;;2.70;;
23230;SDS011;11784;49.818;8.632;2023-04-06T13:45:01;8.23;;;3.10;;
23230;SDS011;11784;49.818;8.632;2023-04-06T13:47:27;5.53;;;2.25;;
23230;SDS011;11784;49.818;8.632;2023-04-06T13:49:52;4.43;;;2.28;;
23230;SDS011;11784;49.818;8.632;2023-04-06T13:52:19;4.90;;;1.95;;
23230;SDS011;11784;49.818;8.632;2023-04-06T13:54:44;6.82;;;2.05;;
23230;SDS011;11784;49.818;8.632;2023-04-06T13:57:11;5.00;;;2.10;;
23230;SDS011;11784;49.818;8.632;2023-04-06T13:59:37;3.72;;;2.00;;
23230;SDS011;11784;49.818;8.632;2023-04-06T14:02:04;4.13;;;2.22;;
23230;SDS011;11784;49.818;8.632;2023-04-06T14:04:31;4.60;;;2.30;;
23230;SDS011;11784;49.818;8.632;2023-04-06T14:06:58;6.60;;;2.53;;
23230;SDS011;11784;49.818;8.632;2023-04-06T14:09:24;5.95;;;2.13;;
23230;SDS011;11784;49.818;8.632;2023-04-06T14:11:50;8.05;;;2.90;;
23230;SDS011;11784;49.818;8.632;2023-04-06T14:14:16;5.63;;;2.05;;
23230;SDS011;11784;49.818;8.632;2023-04-06T14:16:42;4.55;;;2.05;;
23230;SDS011;11784;49.818;8.632;2023-04-06T14:19:11;5.30;;;2.17;;
23230;SDS011;11784;49.818;8.632;2023-04-06T14:24:08;4.38;;;2.35;;
23230;SDS011;11784;49.818;8.632;2023-04-06T14:26:35;4.22;;;1.88;;
23230;SDS011;11784;49.818;8.632;2023-04-06T14:29:01;5.10;;;2.22;;
23230;SDS011;11784;49.818;8.632;2023-04-06T14:31:27;6.25;;;2.72;;
23230;SDS011;11784;49.818;8.632;2023-04-06T14:33:53;5.65;;;2.63;;
23230;SDS011;11784;49.818;8.632;2023-04-06T14:36:19;3.92;;;2.33;;
23230;SDS011;11784;49.818;8.632;2023-04-06T14:38:45;2.13;;;1.40;;
23230;SDS011;11784;49.818;8.632;2023-04-06T14:41:17;4.63;;;2.20;;
23230;SDS011;11784;49.818;8.632;2023-04-06T14:43:44;4.60;;;2.03;;
23230;SDS011;11784;49.818;8.632;2023-04-06T14:46:10;4.10;;;1.92;;
23230;SDS011;11784;49.818;8.632;2023-04-06T14:48:36;4.68;;;2.25;;
23230;SDS011;11784;49.818;8.632;2023-04-06T14:51:01;4.85;;;2.42;;